Time;durP1;ratioP1;P1;durP2;ratioP2;P2;SDS_P1;SDS_P2;PMS_P1;PMS_P2;Temp;Humidity;BMP_temperature;BMP_pressure;BME280_temperature;BME280_humidity;BME280_pressure;Samples;Min_cycle;Max_cycle;Signal;HPM_P1;HPM_P2
2022/02/16 00:00:00;;;;;;;27.50;7.32;;;;;;;-149.78;100.00;50487.09;5055096;28;20071;-63
2022/02/16 00:02:26;;;;;;;23.17;7.63;;;;;;;-149.78;100.00;50502.75;5053581;28;20484;-63
2022/02/16 00:04:52;;;;;;;27.45;7.85;;;;;;;-149.78;100.00;50518.38;5054899;28;20037;-63
2022/02/16 00:07:18;;;;;;;23.60;7.32;;;;;;;-149.78;100.00;50502.75;5053799;28;20048;-63
2022/02/16 00:09:45;;;;;;;21.45;7.45;;;;;;;-149.78;100.00;50508.59;5054813;28;20041;-63
2022/02/16 00:12:10;;;;;;;21.25;7.07;;;;;;;-149.78;100.00;50483.19;5054888;28;20044;-65
2022/02/16 00:14:36;;;;;;;21.27;7.28;;;;;;;-149.78;100.00;50506.66;5054585;28;20397;-66
2022/02/16 00:17:02;;;;;;;19.83;6.88;;;;;;;-149.78;100.00;50502.75;5054907;28;20029;-65
2022/02/16 00:19:28;;;;;;;29.25;8.27;;;;;;;-149.78;100.00;50461.66;5054572;28;20044;-65
2022/02/16 00:21:53;;;;;;;23.40;7.22;;;;;;;-149.78;100.00;50475.34;5054827;28;20029;-63
2022/02/16 00:24:19;;;;;;;19.77;7.07;;;;;;;-149.78;100.00;50549.69;5054411;28;20116;-63
2022/02/16 00:26:45;;;;;;;18.80;7.28;;;;;;;-149.78;100.00;50479.28;5054487;28;20060;-63
2022/02/16 00:29:11;;;;;;;24.25;8.20;;;;;;;-149.78;100.00;50500.78;5047984;28;20041;-63
2022/02/16 00:31:38;;;;;;;19.80;7.18;;;;;;;-149.78;100.00;50516.44;5034248;28;20099;-63
2022/02/16 00:34:04;;;;;;;21.90;7.50;;;;;;;-149.78;100.00;50506.66;5032796;28;20049;-63
2022/02/16 00:36:29;;;;;;;23.02;7.82;;;;;;;-149.78;100.00;50494.91;5034337;28;20160;-63
2022/02/16 00:38:55;;;;;;;21.80;8.35;;;;;;;-149.78;100.00;50485.13;5053226;28;20500;-63
2022/02/16 00:41:20;;;;;;;21.90;7.55;;;;;;;-149.78;100.00;50518.38;5054229;28;20456;-63
2022/02/16 00:43:46;;;;;;;23.83;7.45;;;;;;;-149.78;100.00;50502.75;5054277;28;20094;-63
2022/02/16 00:46:12;;;;;;;24.40;7.60;;;;;;;-149.78;100.00;50491.00;5052896;28;20465;-63
2022/02/16 00:48:37;;;;;;;15.38;6.38;;;;;;;-149.78;100.00;50473.41;5039352;28;20377;-63
2022/02/16 00:51:03;;;;;;;19.95;6.90;;;;;;;-149.78;100.00;50489.03;5052826;28;20044;-63
2022/02/16 00:53:29;;;;;;;14.38;6.28;;;;;;;-149.78;100.00;50491.00;5043917;28;20382;-63
2022/02/16 00:55:55;;;;;;;15.73;6.57;;;;;;;-149.78;100.00;50483.19;5053822;28;20041;-64
2022/02/16 00:58:21;;;;;;;17.83;6.10;;;;;;;-149.78;100.00;50463.63;5053810;28;20128;-63
2022/02/16 01:00:47;;;;;;;11.40;4.90;;;;;;;-149.78;100.00;50494.91;5053928;28;20036;-64
2022/02/16 01:03:13;;;;;;;13.35;5.75;;;;;;;-149.78;100.00;50479.28;5053786;28;20103;-63
2022/02/16 01:05:38;;;;;;;11.13;5.35;;;;;;;-149.78;100.00;50506.66;5053590;28;20025;-63
2022/02/16 01:08:09;;;;;;;12.63;5.32;;;;;;;-149.78;100.00;50471.44;5053797;28;20037;-66
2022/02/16 01:10:35;;;;;;;14.80;5.35;;;;;;;-149.78;100.00;50485.13;5053559;28;20032;-66
2022/02/16 01:13:00;;;;;;;12.30;5.75;;;;;;;-149.78;100.00;50479.28;5053718;28;20040;-67
2022/02/16 01:15:26;;;;;;;10.50;5.20;;;;;;;-149.78;100.00;50485.13;5053253;28;20033;-66
2022/02/16 01:17:51;;;;;;;16.60;6.18;;;;;;;-149.78;100.00;50506.66;5053928;28;20036;-66
2022/02/16 01:20:17;;;;;;;13.57;5.70;;;;;;;-149.78;100.00;50487.09;5053555;28;20128;-66
2022/02/16 01:22:42;;;;;;;14.93;6.20;;;;;;;-149.78;100.00;50469.50;5035777;28;20040;-66
2022/02/16 01:25:08;;;;;;;13.00;6.25;;;;;;;-149.78;100.00;50491.00;5040188;28;20381;-67
2022/02/16 01:27:34;;;;;;;10.88;5.88;;;;;;;-149.78;100.00;50475.34;5053330;28;20044;-66
2022/02/16 01:30:00;;;;;;;10.73;5.40;;;;;;;-149.78;100.00;50487.09;5053344;28;20051;-67
2022/02/16 01:32:25;;;;;;;13.15;5.80;;;;;;;-149.78;100.00;50491.00;5052710;28;20052;-67
2022/02/16 01:34:51;;;;;;;14.48;5.45;;;;;;;-149.78;100.00;50483.19;5051707;28;20393;-66
2022/02/16 01:37:17;;;;;;;12.60;5.05;;;;;;;-149.78;100.00;50475.34;5052849;28;20075;-67
2022/02/16 01:39:43;;;;;;;11.50;5.45;;;;;;;-149.78;100.00;50502.75;5053015;28;20072;-67
2022/02/16 01:42:15;;;;;;;8.55;4.75;;;;;;;-149.78;100.00;50494.91;5052974;28;20036;-66
2022/02/16 01:44:40;;;;;;;10.97;5.00;;;;;;;-149.78;100.00;50463.63;5052055;28;20041;-66
2022/02/16 01:47:06;;;;;;;10.13;4.75;;;;;;;-149.78;100.00;50471.44;5052572;28;20048;-67
2022/02/16 01:49:33;;;;;;;8.82;4.45;;;;;;;-149.78;100.00;50487.09;5052687;28;20036;-67
2022/02/16 01:52:01;;;;;;;9.98;4.53;;;;;;;-149.78;100.00;50502.75;5052708;28;20068;-66
2022/02/16 01:54:27;;;;;;;7.43;4.30;;;;;;;-149.78;100.00;50467.53;5052652;28;20040;-64
2022/02/16 01:56:53;;;;;;;9.25;4.20;;;;;;;-149.78;100.00;50475.34;5034924;28;20396;-63
2022/02/16 01:59:22;;;;;;;8.68;3.78;;;;;;;-149.78;100.00;50455.81;5052760;28;20051;-64
2022/02/16 02:01:48;;;;;;;6.40;3.85;;;;;;;-149.78;100.00;50491.00;5052718;28;20044;-64
2022/02/16 02:04:15;;;;;;;5.25;2.97;;;;;;;-149.78;100.00;50481.22;5052968;28;20439;-64
2022/02/16 02:06:41;;;;;;;5.90;3.10;;;;;;;-149.78;100.00;50479.28;5052860;28;20025;-64
2022/02/16 02:09:07;;;;;;;7.43;3.35;;;;;;;-149.78;100.00;50479.28;5053140;28;20044;-67
2022/02/16 02:11:33;;;;;;;7.30;3.13;;;;;;;-149.78;100.00;50463.63;5052978;28;20056;-67
2022/02/16 02:14:01;;;;;;;5.97;2.80;;;;;;;-149.78;100.00;50475.34;5052841;28;20426;-67
2022/02/16 02:16:27;;;;;;;4.78;3.08;;;;;;;-149.78;100.00;50473.41;5053017;28;20037;-67
2022/02/16 02:18:53;;;;;;;5.28;2.90;;;;;;;-149.78;100.00;50483.19;5052741;28;20045;-67
2022/02/16 02:21:19;;;;;;;5.20;2.55;;;;;;;-149.78;100.00;50471.44;5052956;28;20033;-67
2022/02/16 02:23:46;;;;;;;6.38;2.63;;;;;;;-149.78;100.00;50459.72;5053052;28;20060;-67
2022/02/16 02:26:13;;;;;;;4.78;2.72;;;;;;;-149.78;100.00;50455.81;5052706;28;20082;-67
2022/02/16 02:28:40;;;;;;;7.97;3.00;;;;;;;-149.78;100.00;50483.19;5052678;28;20037;-67
2022/02/16 02:31:05;;;;;;;4.55;2.33;;;;;;;-149.78;100.00;50473.41;5052841;28;20048;-67
2022/02/16 02:33:32;;;;;;;4.40;2.60;;;;;;;-149.78;100.00;50436.25;5052516;28;20043;-67
2022/02/16 02:35:58;;;;;;;9.82;2.35;;;;;;;-149.78;100.00;50444.06;5051500;28;20037;-66
2022/02/16 02:38:25;;;;;;;5.72;2.28;;;;;;;-149.78;100.00;50453.84;5052689;28;20681;-64
2022/02/16 02:40:55;;;;;;;6.18;1.83;;;;;;;-149.78;100.00;50444.06;5052716;28;20120;-67
2022/02/16 02:43:21;;;;;;;4.55;2.00;;;;;;;-149.78;100.00;50459.72;5052641;28;20372;-67
2022/02/16 02:45:48;;;;;;;4.05;2.13;;;;;;;-149.78;100.00;50436.25;5051367;28;20033;-67
2022/02/16 02:48:14;;;;;;;2.40;1.60;;;;;;;-149.78;100.00;50471.44;5034955;28;20034;-63
2022/02/16 02:50:40;;;;;;;2.70;1.90;;;;;;;-149.78;100.00;50428.41;5032657;28;20046;-67
2022/02/16 02:53:05;;;;;;;2.95;1.90;;;;;;;-149.78;100.00;50483.19;5046120;28;20036;-67
2022/02/16 02:55:31;;;;;;;2.00;1.50;;;;;;;-149.78;100.00;50428.41;5052051;28;20107;-67
2022/02/16 02:57:56;;;;;;;2.00;1.42;;;;;;;-149.78;100.00;50463.63;5055838;28;20718;-64
2022/02/16 03:00:22;;;;;;;3.20;1.60;;;;;;;-149.78;100.00;50463.63;5054872;28;20037;-64
2022/02/16 03:02:49;;;;;;;6.07;1.40;;;;;;;-149.78;100.00;50455.81;5056004;28;20040;-64
2022/02/16 03:05:14;;;;;;;2.67;1.50;;;;;;;-149.78;100.00;50463.63;5055871;28;20093;-64
2022/02/16 03:07:41;;;;;;;2.15;1.40;;;;;;;-149.78;100.00;50467.53;5055870;28;20491;-64
2022/02/16 03:10:07;;;;;;;1.42;1.30;;;;;;;-149.78;100.00;50467.53;5054948;28;20037;-64
2022/02/16 03:12:33;;;;;;;2.40;1.60;;;;;;;-149.78;100.00;50440.16;5048676;28;20041;-64
2022/02/16 03:14:59;;;;;;;2.00;1.50;;;;;;;-149.78;100.00;50451.88;5055710;28;20094;-64
2022/02/16 03:17:26;;;;;;;3.70;1.55;;;;;;;-149.78;100.00;50463.63;5055835;28;20040;-64
2022/02/16 03:19:52;;;;;;;2.10;1.48;;;;;;;-149.78;100.00;50436.25;5055581;28;20035;-64
2022/02/16 03:22:19;;;;;;;3.95;1.80;;;;;;;-149.78;100.00;50479.28;5055933;28;20037;-64
2022/02/16 03:24:46;;;;;;;3.38;1.60;;;;;;;-149.78;100.00;50428.41;5055567;28;20032;-64
2022/02/16 03:27:12;;;;;;;2.95;1.58;;;;;;;-149.78;100.00;50440.16;5055668;28;20041;-64
2022/02/16 03:29:38;;;;;;;2.75;1.85;;;;;;;-149.78;100.00;50440.16;5055283;28;20530;-64
2022/02/16 03:32:04;;;;;;;3.78;2.10;;;;;;;-149.78;100.00;50412.78;5055269;28;20099;-64
2022/02/16 03:34:30;;;;;;;1.98;1.70;;;;;;;-149.78;100.00;50424.50;5055402;28;20064;-64
2022/02/16 03:36:56;;;;;;;3.47;1.48;;;;;;;-149.78;100.00;50416.69;5050242;28;20482;-64
2022/02/16 03:39:21;;;;;;;2.45;1.70;;;;;;;-149.78;100.00;50444.06;5051916;28;20503;-64
2022/02/16 03:41:49;;;;;;;3.00;1.83;;;;;;;-149.78;100.00;50424.50;5055146;28;20033;-64
2022/02/16 03:44:15;;;;;;;6.03;1.70;;;;;;;-149.78;100.00;50381.47;5055386;28;20047;-64
2022/02/16 03:46:43;;;;;;;3.47;1.40;;;;;;;-149.78;100.00;50436.25;5055149;28;20108;-64
2022/02/16 03:49:08;;;;;;;1.45;1.20;;;;;;;-149.78;100.00;50424.50;5055327;28;20040;-64
2022/02/16 03:51:35;;;;;;;4.88;1.20;;;;;;;-149.78;100.00;50463.63;5053699;28;20036;-64
2022/02/16 03:54:00;;;;;;;2.30;1.10;;;;;;;-149.78;100.00;50426.47;5055088;28;20041;-64
2022/02/16 03:56:26;;;;;;;0.90;0.90;;;;;;;-149.78;100.00;50463.63;5054810;28;20036;-64
2022/02/16 03:58:51;;;;;;;2.45;0.93;;;;;;;-149.78;100.00;50479.28;5054945;28;20048;-64
2022/02/16 04:01:18;;;;;;;2.08;1.00;;;;;;;-149.78;100.00;50428.41;5054900;28;20041;-64
2022/02/16 04:03:43;;;;;;;2.13;0.70;;;;;;;-149.78;100.00;50408.84;5054879;28;20037;-64
2022/02/16 04:06:09;;;;;;;2.42;0.80;;;;;;;-149.78;100.00;50416.69;5054746;28;20029;-64
2022/02/16 04:08:35;;;;;;;0.93;0.73;;;;;;;-149.78;100.00;50428.41;5054041;28;20037;-64
2022/02/16 04:11:01;;;;;;;1.98;0.70;;;;;;;-149.78;100.00;50424.50;5039391;28;20049;-64
2022/02/16 04:13:26;;;;;;;1.58;0.70;;;;;;;-149.78;100.00;50444.06;5053572;28;20083;-64
2022/02/16 04:15:52;;;;;;;2.30;0.75;;;;;;;-149.78;100.00;50408.84;5054573;28;20036;-64
2022/02/16 04:18:17;;;;;;;1.48;0.60;;;;;;;-149.78;100.00;50465.56;5053286;28;20408;-64
2022/02/16 04:20:43;;;;;;;0.65;0.47;;;;;;;-149.78;100.00;50422.56;5054383;28;20048;-63
2022/02/16 04:23:09;;;;;;;1.10;0.50;;;;;;;-149.78;100.00;50440.16;5054718;28;20037;-64
2022/02/16 04:25:36;;;;;;;0.98;0.70;;;;;;;-149.78;100.00;50455.81;5054581;28;20037;-64
2022/02/16 04:28:04;;;;;;;0.70;0.45;;;;;;;-149.78;100.00;50420.59;5054520;28;20108;-64
2022/02/16 04:30:31;;;;;;;0.47;0.40;;;;;;;-149.78;100.00;50410.81;5054235;28;20041;-64
2022/02/16 04:32:57;;;;;;;0.90;0.57;;;;;;;-149.78;100.00;50395.16;5054567;28;20192;-64
2022/02/16 04:35:22;;;;;;;0.93;0.60;;;;;;;-149.78;100.00;50420.59;5054211;28;20151;-64
2022/02/16 04:37:48;;;;;;;0.65;0.50;;;;;;;-149.78;100.00;50440.16;5046414;28;20041;-64
2022/02/16 04:40:14;;;;;;;1.65;0.50;;;;;;;-149.78;100.00;50406.91;5054176;28;20029;-64
2022/02/16 04:42:40;;;;;;;3.08;0.60;;;;;;;-149.78;100.00;50418.63;5053925;28;20476;-64
2022/02/16 04:45:07;;;;;;;3.70;0.90;;;;;;;-149.78;100.00;50428.41;5053925;28;20029;-64
2022/02/16 04:47:33;;;;;;;0.73;0.50;;;;;;;-149.78;100.00;50412.78;5052553;28;20041;-64
2022/02/16 04:49:58;;;;;;;1.55;0.60;;;;;;;-149.78;100.00;50399.09;5054084;28;20029;-64
2022/02/16 04:52:34;;;;;;;0.40;0.40;;;;;;;-149.78;100.00;50408.84;5053965;28;20503;-64
2022/02/16 04:55:05;;;;;;;0.50;0.50;;;;;;;-149.78;100.00;50408.84;5053825;28;20044;-64
2022/02/16 04:57:31;;;;;;;0.43;0.40;;;;;;;-149.78;100.00;50432.31;5053838;28;20075;-64
2022/02/16 04:59:58;;;;;;;2.05;0.60;;;;;;;-149.78;100.00;50404.94;5053865;28;20064;-64
2022/02/16 05:02:28;;;;;;;1.90;0.75;;;;;;;-149.78;100.00;50410.81;5053713;28;20040;-64
2022/02/16 05:04:54;;;;;;;1.52;0.50;;;;;;;-149.78;100.00;50397.13;5053832;28;20097;-64
2022/02/16 05:07:21;;;;;;;0.90;0.70;;;;;;;-149.78;100.00;50410.81;5053910;28;20032;-64
2022/02/16 05:09:46;;;;;;;1.58;0.75;;;;;;;-149.78;100.00;50451.88;5053620;28;20082;-64
2022/02/16 05:12:12;;;;;;;1.02;0.55;;;;;;;-149.78;100.00;50440.16;5053657;28;20036;-64
2022/02/16 05:14:38;;;;;;;0.52;0.40;;;;;;;-149.78;100.00;50377.56;5052312;28;20025;-64
2022/02/16 05:17:04;;;;;;;2.17;0.63;;;;;;;-149.78;100.00;50406.91;5053608;28;20033;-64
2022/02/16 05:19:30;;;;;;;2.38;0.50;;;;;;;-149.78;100.00;50404.94;5052793;28;20033;-64
2022/02/16 05:21:55;;;;;;;0.85;0.77;;;;;;;-149.78;100.00;50401.03;5053421;28;20037;-64
2022/02/16 05:24:21;;;;;;;2.25;1.17;;;;;;;-149.78;100.00;50420.59;5053487;28;20047;-64
2022/02/16 05:26:47;;;;;;;3.40;1.40;;;;;;;-149.78;100.00;50397.13;5053482;28;20037;-64
2022/02/16 05:29:13;;;;;;;3.60;1.73;;;;;;;-149.78;100.00;50401.03;5053446;28;20037;-64
2022/02/16 05:31:38;;;;;;;4.35;1.90;;;;;;;-149.78;100.00;50410.81;5053219;28;20132;-64
2022/02/16 05:34:04;;;;;;;3.33;1.70;;;;;;;-149.78;100.00;50416.69;5052199;28;20036;-64
2022/02/16 05:36:29;;;;;;;4.50;1.40;;;;;;;-149.78;100.00;50420.59;5053208;28;20132;-64
2022/02/16 05:38:55;;;;;;;2.92;1.38;;;;;;;-149.78;100.00;50373.66;5053420;28;20037;-64
2022/02/16 05:41:21;;;;;;;3.58;1.40;;;;;;;-149.78;100.00;50414.72;5053271;28;20037;-64
2022/02/16 05:43:47;;;;;;;9.13;1.92;;;;;;;-149.78;100.00;50404.94;5053331;28;20043;-64
2022/02/16 05:46:14;;;;;;;2.83;1.77;;;;;;;-149.78;100.00;50408.84;5053100;28;20400;-64
2022/02/16 05:48:39;;;;;;;3.13;1.35;;;;;;;-149.78;100.00;50381.47;5053136;28;20696;-64
2022/02/16 05:51:05;;;;;;;4.43;1.38;;;;;;;-149.78;100.00;50428.41;5052557;28;20047;-64
2022/02/16 05:53:31;;;;;;;2.83;1.20;;;;;;;-149.78;100.00;50399.09;5044529;28;20029;-64
2022/02/16 05:55:56;;;;;;;2.65;1.27;;;;;;;-149.78;100.00;50365.84;5033093;28;20044;-64
2022/02/16 05:58:22;;;;;;;2.80;1.25;;;;;;;-149.78;100.00;50401.03;5033337;28;20112;-64
2022/02/16 06:00:47;;;;;;;1.45;1.00;;;;;;;-149.78;100.00;50444.06;5042969;28;20041;-64
2022/02/16 06:03:13;;;;;;;3.97;1.00;;;;;;;-149.78;100.00;50408.84;5052993;28;20048;-64
2022/02/16 06:05:39;;;;;;;2.65;1.00;;;;;;;-149.78;100.00;50399.09;5053002;28;20032;-67
2022/02/16 06:08:04;;;;;;;3.78;0.98;;;;;;;-149.78;100.00;50383.44;5053030;28;20168;-67
2022/02/16 06:10:30;;;;;;;1.20;0.63;;;;;;;-149.78;100.00;50408.84;5053047;28;20040;-67
2022/02/16 06:12:58;;;;;;;4.88;0.75;;;;;;;-149.78;100.00;50369.75;5052941;28;20040;-67
2022/02/16 06:15:24;;;;;;;7.78;1.20;;;;;;;-149.78;100.00;50404.94;5052964;28;20045;-67
2022/02/16 06:17:50;;;;;;;6.63;1.80;;;;;;;-149.78;100.00;50361.91;5052100;28;20143;-67
2022/02/16 06:20:16;;;;;;;8.93;2.08;;;;;;;-149.78;100.00;50389.31;5052928;28;20116;-67
2022/02/16 06:22:41;;;;;;;12.85;2.05;;;;;;;-149.78;100.00;50432.31;5052832;28;20041;-67
2022/02/16 06:25:07;;;;;;;13.90;1.90;;;;;;;-149.78;100.00;50397.13;5052873;28;20032;-67
2022/02/16 06:27:37;;;;;;;11.52;2.40;;;;;;;-149.78;100.00;50373.66;5052902;28;20060;-67
2022/02/16 06:30:07;;;;;;;13.32;2.00;;;;;;;-149.78;100.00;50373.66;5052743;28;20126;-67
2022/02/16 06:32:34;;;;;;;9.00;2.28;;;;;;;-149.78;100.00;50401.03;5055826;28;20060;-64
2022/02/16 06:35:00;;;;;;;12.98;2.60;;;;;;;-149.78;100.00;50428.41;5056510;28;20041;-64
2022/02/16 06:37:26;;;;;;;16.85;2.58;;;;;;;-149.78;100.00;50416.69;5054995;28;20106;-64
2022/02/16 06:39:52;;;;;;;14.75;3.58;;;;;;;-149.78;100.00;50412.78;5055974;28;20037;-64
2022/02/16 06:42:17;;;;;;;13.18;2.92;;;;;;;-149.78;100.00;50401.03;5055980;28;20040;-64
2022/02/16 06:44:43;;;;;;;23.52;3.10;;;;;;;-149.78;100.00;50401.03;5055886;28;20037;-67
2022/02/16 06:47:09;;;;;;;13.40;2.60;;;;;;;-149.78;100.00;50365.84;5054828;28;20500;-67
2022/02/16 06:49:35;;;;;;;23.13;2.97;;;;;;;-149.78;100.00;50422.56;5055799;28;20037;-67
2022/02/16 06:52:01;;;;;;;17.42;2.97;;;;;;;-149.78;100.00;50424.50;5055791;28;20123;-67
2022/02/16 06:54:26;;;;;;;19.23;3.00;;;;;;;-149.78;100.00;50359.97;5056495;28;20105;-66
2022/02/16 06:56:52;;;;;;;14.70;2.85;;;;;;;-149.78;100.00;50408.84;5044068;28;20045;-67
2022/02/16 06:59:18;;;;;;;12.68;3.92;;;;;;;-149.78;100.00;50440.16;5035799;28;20040;-66
2022/02/16 07:01:44;;;;;;;16.48;3.10;;;;;;;-149.78;100.00;50389.31;5053171;28;20435;-66
2022/02/16 07:04:09;;;;;;;11.80;2.67;;;;;;;-149.78;100.00;50397.13;5055573;28;20041;-66
2022/02/16 07:06:35;;;;;;;13.85;2.95;;;;;;;-149.78;100.00;50420.59;5055610;28;20091;-66
2022/02/16 07:09:00;;;;;;;12.68;3.30;;;;;;;-149.78;100.00;50434.28;5055858;28;20040;-66
2022/02/16 07:11:26;;;;;;;14.90;2.70;;;;;;;-149.78;100.00;50408.84;5056182;28;20045;-66
2022/02/16 07:13:52;;;;;;;9.30;1.73;;;;;;;-149.78;100.00;50424.50;5056114;28;20037;-66
2022/02/16 07:16:17;;;;;;;9.35;2.58;;;;;;;-149.78;100.00;50436.25;5056093;28;20041;-66
2022/02/16 07:18:43;;;;;;;19.63;3.40;;;;;;;-149.78;100.00;50412.78;5055543;28;20560;-66
2022/02/16 07:21:09;;;;;;;17.90;2.70;;;;;;;-149.78;100.00;50432.31;5054462;28;20041;-66
2022/02/16 07:23:36;;;;;;;19.92;3.03;;;;;;;-149.78;100.00;50404.94;5055777;28;20056;-67
2022/02/16 07:26:04;;;;;;;16.38;2.47;;;;;;;-149.78;100.00;50440.16;5054582;28;20025;-66
2022/02/16 07:28:30;;;;;;;18.98;2.22;;;;;;;-149.78;100.00;50404.94;5043461;28;20041;-66
2022/02/16 07:30:56;;;;;;;12.57;2.42;;;;;;;-149.78;100.00;50408.84;5047370;28;20044;-64
2022/02/16 07:33:22;;;;;;;10.05;2.65;;;;;;;-149.78;100.00;50420.59;5046557;28;20082;-64
2022/02/16 07:35:48;;;;;;;12.45;2.20;;;;;;;-149.78;100.00;50410.81;5042861;28;20103;-63
2022/02/16 07:38:15;;;;;;;17.40;3.13;;;;;;;-149.78;100.00;50397.13;5046237;28;20052;-64
2022/02/16 07:40:41;;;;;;;24.10;2.72;;;;;;;-149.78;100.00;50377.56;5046007;28;20116;-63
2022/02/16 07:43:07;;;;;;;14.02;2.88;;;;;;;-149.78;100.00;50412.78;5044453;28;20029;-63
2022/02/16 07:45:33;;;;;;;21.70;2.75;;;;;;;-149.78;100.00;50373.66;5044326;28;20028;-63
2022/02/16 07:48:00;;;;;;;20.48;3.08;;;;;;;-149.78;100.00;50436.25;5038806;28;20124;-63
2022/02/16 07:50:28;;;;;;;24.73;4.05;;;;;;;-149.78;100.00;50389.31;5047919;28;20488;-64
2022/02/16 07:52:58;;;;;;;18.30;3.00;;;;;;;-149.78;100.00;50432.31;5042524;28;20034;-64
2022/02/16 07:55:26;;;;;;;25.95;3.47;;;;;;;-149.78;100.00;50438.19;5042344;28;20064;-63
2022/02/16 07:57:53;;;;;;;17.67;2.78;;;;;;;-149.78;100.00;50412.78;5041256;28;20439;-63
2022/02/16 08:00:19;;;;;;;25.02;3.97;;;;;;;-149.78;100.00;50389.31;5044200;28;20021;-63
2022/02/16 08:02:45;;;;;;;31.20;4.07;;;;;;;-149.78;100.00;50440.16;5044645;28;20048;-66
2022/02/16 08:05:11;;;;;;;24.55;3.13;;;;;;;-149.78;100.00;50412.78;5044537;28;20026;-66
2022/02/16 08:07:38;;;;;;;19.40;3.22;;;;;;;-149.78;100.00;50428.41;5041381;28;20373;-66
2022/02/16 08:10:04;;;;;;;26.88;3.65;;;;;;;-149.78;100.00;50420.59;5042767;28;20060;-66
2022/02/16 08:12:30;;;;;;;18.80;2.90;;;;;;;-149.78;100.00;50408.84;5047666;28;20033;-66
2022/02/16 08:14:55;;;;;;;21.95;3.25;;;;;;;-149.78;100.00;50408.84;5044668;28;20032;-66
2022/02/16 08:17:21;;;;;;;31.67;4.68;;;;;;;-149.78;100.00;50389.31;5041477;28;20518;-67
2022/02/16 08:19:47;;;;;;;26.25;3.92;;;;;;;-149.78;100.00;50404.94;5037801;28;20032;-66
2022/02/16 08:22:13;;;;;;;20.58;4.22;;;;;;;-149.78;100.00;50399.09;5039805;28;20060;-63
2022/02/16 08:24:39;;;;;;;27.42;4.38;;;;;;;-149.78;100.00;50412.78;5041472;28;20033;-63
2022/02/16 08:27:05;;;;;;;22.33;3.88;;;;;;;-149.78;100.00;50397.13;5036594;28;20105;-62
2022/02/16 08:29:31;;;;;;;26.50;3.83;;;;;;;-149.78;100.00;50412.78;5035900;28;20029;-63
2022/02/16 08:31:57;;;;;;;23.95;4.05;;;;;;;-149.78;100.00;50381.47;5039926;28;20053;-62
2022/02/16 08:34:23;;;;;;;23.40;4.28;;;;;;;-149.78;100.00;50375.63;5042858;28;20450;-62
2022/02/16 08:36:55;;;;;;;21.17;4.07;;;;;;;-149.78;100.00;50373.66;5037021;28;20039;-63
2022/02/16 08:39:23;;;;;;;27.02;4.05;;;;;;;-149.78;100.00;50404.94;5048603;28;20032;-62
2022/02/16 08:41:49;;;;;;;28.73;5.82;;;;;;;-149.78;100.00;50391.25;5035556;28;20037;-63
2022/02/16 08:44:17;;;;;;;24.20;5.28;;;;;;;-149.78;100.00;50424.50;5047764;28;20476;-62
2022/02/16 08:46:43;;;;;;;25.15;4.43;;;;;;;-149.78;100.00;50410.81;5046683;28;20120;-63
2022/02/16 08:49:09;;;;;;;27.40;4.15;;;;;;;-149.78;100.00;50354.09;5046481;28;20107;-62
2022/02/16 08:51:35;;;;;;;30.55;4.47;;;;;;;-149.78;100.00;50404.94;5027796;28;20439;-63
2022/02/16 08:54:00;;;;;;;25.77;4.20;;;;;;;-149.78;100.00;50354.09;5041296;28;20107;-63
2022/02/16 08:56:29;;;;;;;28.75;4.80;;;;;;;-149.78;100.00;50369.75;5047889;28;20056;-62
2022/02/16 08:58:57;;;;;;;24.02;5.15;;;;;;;-149.78;100.00;50379.53;5039213;28;20087;-62
2022/02/16 09:01:22;;;;;;;31.10;4.65;;;;;;;-149.78;100.00;50395.16;5044858;28;20481;-62
2022/02/16 09:03:48;;;;;;;25.05;3.97;;;;;;;-149.78;100.00;50330.63;5037492;28;20037;-63
2022/02/16 09:06:14;;;;;;;26.17;3.83;;;;;;;-149.78;100.00;50369.75;5044738;28;20028;-62
2022/02/16 09:08:40;;;;;;;22.40;4.35;;;;;;;-149.78;100.00;50340.41;5039670;28;20048;-63
2022/02/16 09:11:05;;;;;;;20.15;3.53;;;;;;;-149.78;100.00;50305.22;5034606;28;20042;-63
2022/02/16 09:13:31;;;;;;;20.42;4.30;;;;;;;-149.78;100.00;50311.06;5042928;28;20523;-63
2022/02/16 09:15:57;;;;;;;20.90;4.40;;;;;;;-149.78;100.00;50311.06;5045785;28;20534;-63
2022/02/16 09:18:24;;;;;;;27.58;5.07;;;;;;;-149.78;100.00;50283.69;5050675;28;20366;-63
2022/02/16 09:20:50;;;;;;;23.67;4.22;;;;;;;-149.78;100.00;50291.50;5043911;28;20128;-63
2022/02/16 09:23:16;;;;;;;22.77;4.50;;;;;;;-149.78;100.00;50307.16;5045986;28;20148;-63
2022/02/16 09:25:44;;;;;;;25.30;4.20;;;;;;;-149.78;100.00;50295.44;5044690;28;20032;-63
2022/02/16 09:28:11;;;;;;;30.02;4.68;;;;;;;-149.78;100.00;50291.50;5048474;28;20026;-63
2022/02/16 09:30:36;;;;;;;27.85;4.97;;;;;;;-149.78;100.00;50305.22;5037315;28;20034;-63
2022/02/16 09:33:02;;;;;;;23.02;4.03;;;;;;;-149.78;100.00;50314.97;5039496;28;20460;-62
2022/02/16 09:35:29;;;;;;;27.45;5.53;;;;;;;-149.78;100.00;50338.44;5051684;28;21586;-63
2022/02/16 09:37:55;;;;;;;18.85;4.20;;;;;;;-149.78;100.00;50297.38;5040114;28;20033;-63
2022/02/16 09:40:21;;;;;;;31.75;4.78;;;;;;;-149.78;100.00;50299.34;5045057;28;20621;-63
2022/02/16 09:42:47;;;;;;;24.83;6.35;;;;;;;-149.78;100.00;50314.97;5044756;28;20087;-63
2022/02/16 09:45:14;;;;;;;23.90;4.68;;;;;;;-149.78;100.00;50299.34;5040043;28;20381;-65
2022/02/16 09:47:43;;;;;;;27.95;5.78;;;;;;;-149.78;100.00;50311.06;5042846;28;20107;-63
2022/02/16 09:50:11;;;;;;;35.03;7.60;;;;;;;-149.78;100.00;50307.16;5048438;28;20056;-63
2022/02/16 09:52:39;;;;;;;30.88;5.45;;;;;;;-149.78;100.00;50299.34;5045882;28;20124;-63
2022/02/16 09:55:04;;;;;;;34.00;5.00;;;;;;;-149.78;100.00;50334.53;5056645;28;20056;-63
2022/02/16 09:57:30;;;;;;;25.77;5.00;;;;;;;-149.78;100.00;50311.06;5054748;28;20048;-66
2022/02/16 09:59:56;;;;;;;26.48;5.03;;;;;;;-149.78;100.00;50311.06;5060812;28;20033;-66
2022/02/16 10:02:21;;;;;;;31.52;5.30;;;;;;;-149.78;100.00;50307.16;5043296;28;20037;-66
2022/02/16 10:04:58;;;;;;;39.45;6.15;;;;;;;-149.78;100.00;50326.72;5064100;28;20380;-66
2022/02/16 10:07:36;;;;;;;29.33;5.63;;;;;;;-149.78;100.00;50346.28;5066634;28;20025;-66
2022/02/16 10:10:11;;;;;;;33.90;6.35;;;;;;;-149.78;100.00;50348.22;5060556;28;20037;-66
2022/02/16 10:12:37;;;;;;;32.05;5.90;;;;;;;-149.78;100.00;50342.38;5045761;28;20089;-66
2022/02/16 10:15:03;;;;;;;35.25;4.80;;;;;;;-149.78;100.00;50358.00;5054476;28;20037;-66
2022/02/16 10:17:30;;;;;;;25.90;5.25;;;;;;;-149.78;100.00;50338.44;5047358;28;20044;-66
2022/02/16 10:19:58;;;;;;;31.67;5.25;;;;;;;-149.78;100.00;50387.34;5043221;28;20045;-66
2022/02/16 10:22:49;;;;;;;26.67;5.57;;;;;;;-149.78;100.00;50391.25;5051042;28;20126;-66
2022/02/16 10:25:36;;;;;;;32.08;5.60;;;;;;;-149.78;100.00;50358.00;5050219;28;20116;-66
2022/02/16 10:28:12;;;;;;;26.67;6.05;;;;;;;-149.78;100.00;50399.09;5053425;28;20072;-66
2022/02/16 10:31:00;;;;;;;28.50;4.57;;;;;;;-149.78;100.00;50346.28;5042244;28;20037;-66
2022/02/16 10:33:30;;;;;;;34.38;5.32;;;;;;;-149.78;100.00;50373.66;5053056;28;20036;-66
2022/02/16 10:36:03;;;;;;;26.00;5.35;;;;;;;-149.78;100.00;50350.19;5044068;28;20092;-66
2022/02/16 10:38:31;;;;;;;28.30;5.18;;;;;;;-149.78;100.00;50391.25;5043796;28;20795;-62
2022/02/16 10:41:07;;;;;;;33.60;5.43;;;;;;;-149.78;100.00;50365.84;5068908;28;20037;-63
2022/02/16 10:43:38;;;;;;;30.85;6.00;;;;;;;-149.78;100.00;50389.31;5068463;28;20040;-63
2022/02/16 10:46:24;;;;;;;36.28;6.00;;;;;;;-149.78;100.00;50361.91;5059556;28;20029;-63
2022/02/16 10:49:11;;;;;;;32.05;5.32;;;;;;;-149.78;100.00;50354.09;5069691;28;20037;-63
2022/02/16 10:51:38;;;;;;;28.25;5.38;;;;;;;-149.78;100.00;50336.50;5067166;28;20017;-65
2022/02/16 10:54:16;;;;;;;30.40;5.43;;;;;;;-149.78;100.00;50350.19;5075832;28;20033;-66
2022/02/16 10:56:45;;;;;;;31.45;5.50;;;;;;;-149.78;100.00;50332.59;5045941;28;20032;-66
2022/02/16 10:59:11;;;;;;;29.40;4.70;;;;;;;-149.78;100.00;50334.53;5042067;28;20065;-66
2022/02/16 11:01:39;;;;;;;34.17;6.10;;;;;;;-149.78;100.00;50344.31;5043611;28;20036;-63